createdAt,value
2023-03-12T00:03:40.565Z,63.58
2023-03-12T00:13:44.320Z,63.41
2023-03-12T00:23:52.394Z,63.31
2023-03-12T00:33:56.683Z,63.40
2023-03-12T00:44:00.456Z,63.41
2023-03-12T00:54:04.939Z,63.62
2023-03-12T01:04:09.729Z,63.53
2023-03-12T01:14:17.063Z,63.47
2023-03-12T01:24:20.926Z,64.09
2023-03-12T01:34:24.510Z,65.15
2023-03-12T01:44:28.742Z,66.17
2023-03-12T01:54:40.249Z,66.25
2023-03-12T02:04:46.322Z,66.22
2023-03-12T02:14:50.417Z,66.10
2023-03-12T02:25:14.389Z,66.08
2023-03-12T02:35:18.862Z,65.88
2023-03-12T02:45:27.321Z,65.46
2023-03-12T02:55:31.853Z,65.20
2023-03-12T03:05:37.585Z,65.53
2023-03-12T03:15:43.902Z,66.13
2023-03-12T03:25:48.084Z,66.87
2023-03-12T03:35:52.270Z,67.59
2023-03-12T03:45:59.553Z,68.34
2023-03-12T03:56:12.347Z,68.38
2023-03-12T04:06:20.406Z,68.23
2023-03-12T04:16:24.991Z,68.47
2023-03-12T04:26:31.832Z,70.24
2023-03-12T04:36:35.558Z,70.28
2023-03-12T04:46:39.700Z,70.26
2023-03-12T04:56:45.856Z,69.51
2023-03-12T05:06:49.563Z,68.62
2023-03-12T05:16:53.392Z,68.11
2023-03-12T05:26:57.204Z,67.32
2023-03-12T05:37:01.020Z,66.48
2023-03-12T05:47:06.630Z,65.29
2023-03-12T05:57:10.772Z,64.10
2023-03-12T06:07:16.331Z,63.19
2023-03-12T06:17:20.004Z,62.72
2023-03-12T06:27:24.165Z,62.03
2023-03-12T06:37:28.607Z,61.03
2023-03-12T06:47:33.052Z,59.96
2023-03-12T06:57:36.650Z,58.85
2023-03-12T07:07:40.258Z,58.00
2023-03-12T07:17:45.877Z,60.10
2023-03-12T07:27:49.561Z,59.56
2023-03-12T07:37:53.489Z,58.34
2023-03-12T07:47:57.563Z,58.46
2023-03-12T07:58:05.057Z,59.76
2023-03-12T08:08:10.386Z,59.36
2023-03-12T08:18:14.721Z,58.97
2023-03-12T08:28:20.193Z,57.68
2023-03-12T08:38:26.047Z,60.04
2023-03-12T08:48:31.507Z,62.62
2023-03-12T08:58:37.282Z,62.64
2023-03-12T09:08:41.805Z,61.21
2023-03-12T09:18:45.780Z,60.21
2023-03-12T09:28:50.475Z,57.68
2023-03-12T09:38:55.359Z,55.46
2023-03-12T09:49:05.949Z,53.96
2023-03-12T09:59:13.221Z,53.29
2023-03-12T10:09:25.925Z,53.15
2023-03-12T10:19:51.148Z,52.37
2023-03-12T10:29:57.047Z,52.04
2023-03-12T10:40:02.462Z,52.80
2023-03-12T10:50:20.867Z,54.74
2023-03-12T11:00:37.142Z,53.64
2023-03-12T11:10:47.836Z,52.22
2023-03-12T11:21:24.578Z,49.89
2023-03-12T11:31:34.372Z,47.73
2023-03-12T11:41:44.162Z,47.21
2023-03-12T11:52:07.788Z,45.83
2023-03-12T12:02:37.994Z,46.22
2023-03-12T12:12:49.568Z,47.06
2023-03-12T12:23:23.410Z,47.99
2023-03-12T12:33:41.947Z,47.81
2023-03-12T12:44:17.617Z,47.03
2023-03-12T12:54:59.682Z,45.07
2023-03-12T13:05:03.401Z,41.98
2023-03-12T13:15:34.943Z,39.61
2023-03-12T13:26:06.057Z,40.35
2023-03-12T13:37:18.529Z,41.58
2023-03-12T13:47:34.332Z,42.17
2023-03-12T13:57:53.272Z,41.43
2023-03-12T14:08:26.686Z,40.96
2023-03-12T14:18:34.890Z,41.42
2023-03-12T14:28:41.614Z,41.58
2023-03-12T14:38:49.254Z,41.07
2023-03-12T14:48:57.554Z,40.89
2023-03-12T14:59:33.885Z,40.08
2023-03-12T15:09:37.677Z,41.03
2023-03-12T15:19:42.827Z,40.61
2023-03-12T15:29:49.852Z,40.64
2023-03-12T15:39:55.265Z,40.58
2023-03-12T15:50:08.118Z,40.66
2023-03-12T16:00:15.021Z,40.83
2023-03-12T16:10:22.829Z,40.89
2023-03-12T16:20:27.134Z,41.17
2023-03-12T16:30:35.180Z,41.56
2023-03-12T16:40:43.759Z,41.71
2023-03-12T16:50:52.750Z,42.39
2023-03-12T17:00:57.814Z,42.61
2023-03-12T17:11:01.831Z,42.84
2023-03-12T17:21:05.849Z,42.90
2023-03-12T17:31:10.136Z,43.63
2023-03-12T17:41:26.163Z,44.43
2023-03-12T17:51:32.143Z,45.16
2023-03-12T18:01:35.936Z,45.61
2023-03-12T18:11:39.964Z,46.08
2023-03-12T18:21:44.664Z,46.76
2023-03-12T18:32:09.312Z,46.89
2023-03-12T18:42:13.341Z,47.25
2023-03-12T18:52:17.071Z,47.39
2023-03-12T19:02:24.127Z,47.46
2023-03-12T19:12:28.363Z,47.56
2023-03-12T19:22:33.514Z,47.94
2023-03-12T19:32:43.684Z,48.43
2023-03-12T19:42:48.520Z,49.06
2023-03-12T19:52:52.449Z,49.20
2023-03-12T20:02:57.222Z,48.88
2023-03-12T20:13:01.363Z,48.77
2023-03-12T20:23:05.522Z,48.52
2023-03-12T20:33:13.094Z,49.05
2023-03-12T20:43:17.211Z,49.21
2023-03-12T20:53:21.033Z,49.83
2023-03-12T21:03:25.921Z,50.07
2023-03-12T21:13:31.111Z,49.92
2023-03-12T21:23:35.329Z,49.85
2023-03-12T21:33:41.623Z,50.02
2023-03-12T21:43:46.987Z,50.31
2023-03-12T21:53:55.562Z,50.35
2023-03-12T22:04:01.365Z,50.36
2023-03-12T22:14:05.491Z,50.53
2023-03-12T22:24:09.455Z,50.71
2023-03-12T22:34:13.550Z,50.64
2023-03-12T22:44:17.329Z,50.99
2023-03-12T22:54:21.006Z,51.11
2023-03-12T23:04:24.735Z,51.58
2023-03-12T23:14:28.313Z,52.15
2023-03-12T23:24:32.114Z,52.61
2023-03-12T23:34:35.730Z,53.09
2023-03-12T23:44:39.721Z,53.06
2023-03-12T23:54:43.287Z,53.53
